Time;durP1;ratioP1;P1;durP2;ratioP2;P2;SDS_P1;SDS_P2;PMS_P1;PMS_P2;Temp;Humidity;BMP_temperature;BMP_pressure;BME280_temperature;BME280_humidity;BME280_pressure;Samples;Min_cycle;Max_cycle;Signal;HPM_P1;HPM_P2
2022/06/14 00:03:17;;;;;;;4.17;2.20;;;;;;;14.09;54.19;99456.13;5072984;28;42930;-78
2022/06/14 00:05:45;;;;;;;2.80;2.40;;;;;;;14.03;54.57;99450.25;5093594;28;42329;-76
2022/06/14 00:08:14;;;;;;;2.17;1.97;;;;;;;13.99;54.87;99454.06;5093678;28;39916;-77
2022/06/14 00:10:43;;;;;;;3.23;2.37;;;;;;;13.95;54.53;99451.72;5076876;28;40923;-73
2022/06/14 00:13:13;;;;;;;2.70;1.90;;;;;;;13.86;54.71;99447.84;5093667;28;43755;-77
2022/06/14 00:15:44;;;;;;;2.13;1.93;;;;;;;13.87;55.03;99449.56;5090551;28;42461;-75
2022/06/14 00:18:12;;;;;;;2.33;2.13;;;;;;;13.86;54.89;99458.50;5076537;28;38969;-77
2022/06/14 00:20:40;;;;;;;2.30;2.07;;;;;;;13.80;54.79;99453.59;5093656;28;42535;-74
2022/06/14 00:23:08;;;;;;;3.20;2.10;;;;;;;13.78;54.66;99466.16;5093128;28;42776;-78
2022/06/14 00:25:39;;;;;;;2.30;2.10;;;;;;;13.75;54.79;99454.84;5076319;28;41162;-74
2022/06/14 00:28:08;;;;;;;2.40;2.20;;;;;;;13.71;54.83;99459.53;5076495;28;38866;-77
2022/06/14 00:30:37;;;;;;;2.30;1.90;;;;;;;13.68;54.68;99465.03;5093452;28;41921;-74
2022/06/14 00:33:07;;;;;;;2.10;1.90;;;;;;;13.65;54.96;99463.44;5076103;28;41784;-76
2022/06/14 00:35:35;;;;;;;2.27;2.00;;;;;;;13.61;54.96;99463.72;5093284;28;42337;-74
2022/06/14 00:38:03;;;;;;;2.83;1.70;;;;;;;13.58;55.54;99463.94;5093287;28;39900;-75
2022/06/14 00:40:34;;;;;;;2.90;2.27;;;;;;;13.54;55.59;99462.41;5076220;28;40755;-79
2022/06/14 00:43:05;;;;;;;2.77;2.30;;;;;;;13.47;55.48;99450.47;5092039;28;43739;-75
2022/06/14 00:46:11;;;;;;;3.13;2.13;;;;;;;13.48;56.03;99457.47;5075984;28;41067;-75
2022/06/14 00:48:43;;;;;;;4.07;2.37;;;;;;;13.43;55.79;99456.94;5075769;28;39943;-75
2022/06/14 00:51:17;;;;;;;3.60;2.27;;;;;;;13.39;56.01;99460.75;5076169;28;41744;-78
2022/06/14 00:53:52;;;;;;;2.37;2.07;;;;;;;13.36;56.29;99463.59;5091547;28;42760;-76
2022/06/14 00:56:25;;;;;;;2.47;2.27;;;;;;;13.32;56.58;99467.44;5092963;28;41067;-77
2022/06/14 00:58:58;;;;;;;2.40;1.87;;;;;;;13.27;56.74;99471.22;5076350;28;39174;-78
2022/06/14 01:01:30;;;;;;;3.83;2.20;;;;;;;13.24;56.91;99471.41;5092769;28;40727;-77
2022/06/14 01:04:04;;;;;;;2.37;2.17;;;;;;;13.19;56.86;99468.22;5075627;28;41812;-78
2022/06/14 01:06:41;;;;;;;3.80;2.10;;;;;;;13.13;56.87;99463.22;5075886;28;42223;-77
2022/06/14 01:09:12;;;;;;;2.67;2.03;;;;;;;13.10;56.83;99460.78;5092057;28;40011;-77
2022/06/14 01:11:44;;;;;;;2.63;2.33;;;;;;;13.07;56.83;99457.47;5089591;28;42187;-78
2022/06/14 01:14:16;;;;;;;2.83;2.27;;;;;;;13.05;56.57;99470.84;5091738;28;42833;-78
2022/06/14 01:16:44;;;;;;;1.83;1.70;;;;;;;13.04;56.72;99468.28;5075024;28;41451;-77
2022/06/14 01:19:19;;;;;;;2.33;2.03;;;;;;;13.02;56.81;99468.38;5092533;28;39203;-77
2022/06/14 01:21:54;;;;;;;2.90;2.03;;;;;;;13.01;56.56;99469.31;5089780;28;41931;-75
2022/06/14 01:24:23;;;;;;;2.07;1.87;;;;;;;12.96;56.79;99463.44;5075513;28;41834;-77
2022/06/14 01:26:51;;;;;;;2.13;1.80;;;;;;;12.94;57.15;99468.00;5093456;28;42417;-75
2022/06/14 01:29:20;;;;;;;2.30;2.07;;;;;;;12.90;57.38;99471.78;5092650;28;39874;-76
2022/06/14 01:31:52;;;;;;;3.40;1.97;;;;;;;12.85;57.44;99468.59;5075424;28;40658;-75
2022/06/14 01:34:22;;;;;;;1.90;1.63;;;;;;;12.82;57.80;99468.78;5092466;28;41782;-77
2022/06/14 01:36:49;;;;;;;3.07;2.40;;;;;;;12.77;57.70;99454.91;5075257;28;41070;-77
2022/06/14 01:39:19;;;;;;;2.57;2.03;;;;;;;12.72;58.11;99457.84;5091870;28;40946;-78
2022/06/14 01:42:01;;;;;;;4.17;2.20;;;;;;;12.70;58.17;99466.88;5093569;28;42495;-78
2022/06/14 01:44:41;;;;;;;3.60;2.40;;;;;;;12.65;58.14;99456.50;5092266;28;41674;-75
2022/06/14 01:47:25;;;;;;;2.77;2.47;;;;;;;12.59;58.28;99457.75;5089273;28;42267;-78
2022/06/14 01:53:12;;;;;;;2.10;1.70;;;;;;;12.50;58.38;99455.63;5044587;28;41818;-78
2022/06/14 01:55:46;;;;;;;2.17;1.83;;;;;;;12.45;58.55;99457.75;5075429;28;41814;-76
2022/06/14 01:58:24;;;;;;;3.00;2.67;;;;;;;12.41;58.47;99458.00;5091802;28;40854;-75
2022/06/14 02:00:57;;;;;;;3.33;1.97;;;;;;;12.36;58.52;99453.00;5075126;28;38955;-78
2022/06/14 02:06:22;;;;;;;2.27;2.07;;;;;;;12.28;59.04;99457.88;5088737;28;42359;-76
2022/06/14 02:08:55;;;;;;;2.10;1.90;;;;;;;12.24;58.76;99466.97;5092148;28;41338;-74
2022/06/14 02:11:29;;;;;;;4.13;2.00;;;;;;;12.20;58.82;99458.34;5075235;28;39089;-77
2022/06/14 02:14:01;;;;;;;2.13;1.90;;;;;;;12.16;58.76;99458.63;5090520;28;42708;-79
2022/06/14 02:16:34;;;;;;;2.63;1.93;;;;;;;12.03;58.88;99437.25;5089781;28;42753;-79
2022/06/14 02:19:09;;;;;;;1.60;1.50;;;;;;;12.08;58.83;99455.56;5091514;28;42430;-76
2022/06/14 02:21:41;;;;;;;1.70;1.60;;;;;;;12.08;58.89;99461.75;5091923;28;38991;-77
2022/06/14 02:24:16;;;;;;;3.33;1.87;;;;;;;12.04;58.88;99460.19;5091932;28;41232;-78
2022/06/14 02:26:49;;;;;;;2.90;2.13;;;;;;;12.00;59.21;99457.78;5091746;28;42556;-75
2022/06/14 02:29:21;;;;;;;2.13;1.93;;;;;;;11.98;59.40;99467.69;5090659;28;42686;-76
2022/06/14 02:31:55;;;;;;;2.97;1.90;;;;;;;11.94;59.46;99471.44;5089529;28;40811;-76
2022/06/14 02:34:28;;;;;;;4.03;2.17;;;;;;;11.92;59.75;99470.69;5075035;28;40689;-74
2022/06/14 02:37:04;;;;;;;4.03;2.07;;;;;;;11.88;60.01;99481.47;5091550;28;43255;-77
2022/06/14 02:39:36;;;;;;;3.20;2.30;;;;;;;11.75;59.72;99461.88;5091783;28;42332;-76
2022/06/14 02:42:12;;;;;;;2.07;1.83;;;;;;;11.84;59.61;99474.63;5091824;28;39336;-75
2022/06/14 02:44:43;;;;;;;2.57;1.83;;;;;;;11.83;59.72;99482.69;5074384;28;41867;-75
2022/06/14 02:47:19;;;;;;;3.23;2.10;;;;;;;11.74;59.77;99461.97;5091125;28;42748;-77
2022/06/14 02:49:51;;;;;;;2.30;1.90;;;;;;;11.79;59.80;99481.16;5091035;28;42474;-76
2022/06/14 02:52:25;;;;;;;2.07;1.87;;;;;;;11.64;60.17;99448.34;5091443;28;39868;-78
2022/06/14 02:54:57;;;;;;;2.60;1.87;;;;;;;11.74;60.04;99468.13;5091076;28;40490;-77
2022/06/14 02:57:32;;;;;;;4.43;2.27;;;;;;;11.73;60.12;99466.41;5074420;28;42994;-78
2022/06/14 03:00:05;;;;;;;2.57;2.37;;;;;;;11.63;60.24;99451.94;5088413;28;42604;-76
2022/06/14 03:02:38;;;;;;;2.20;1.60;;;;;;;11.67;60.29;99466.75;5089251;28;40910;-76
2022/06/14 03:05:14;;;;;;;2.03;1.83;;;;;;;11.66;60.33;99469.50;5091409;28;41918;-75
2022/06/14 03:07:49;;;;;;;2.63;2.10;;;;;;;11.62;60.20;99479.41;5074001;28;41593;-77
2022/06/14 03:10:17;;;;;;;2.83;2.00;;;;;;;11.59;60.43;99479.59;5074453;28;41325;-79
2022/06/14 03:12:52;;;;;;;2.67;2.37;;;;;;;11.56;60.44;99479.78;5092588;28;40027;-79
2022/06/14 03:15:28;;;;;;;2.20;1.90;;;;;;;11.49;60.24;99467.81;5074185;28;40591;-76
2022/06/14 03:18:09;;;;;;;2.40;2.00;;;;;;;11.51;60.67;99471.22;5089188;28;42855;-75
2022/06/14 03:20:45;;;;;;;2.20;1.80;;;;;;;11.50;60.64;99474.81;5087695;28;42263;-76
2022/06/14 03:23:29;;;;;;;3.47;2.10;;;;;;;11.48;60.76;99476.72;5074147;28;39938;-76
2022/06/14 03:26:02;;;;;;;2.53;2.20;;;;;;;11.45;61.12;99469.78;5074303;28;40640;-75
2022/06/14 03:28:42;;;;;;;2.33;1.80;;;;;;;11.44;61.19;99469.84;5089022;28;43741;-75
2022/06/14 03:31:14;;;;;;;3.43;1.93;;;;;;;11.42;60.91;99483.19;5088944;28;42980;-77
2022/06/14 03:33:47;;;;;;;2.73;2.27;;;;;;;11.38;61.13;99475.50;5089127;28;39976;-76
2022/06/14 03:36:16;;;;;;;2.30;1.60;;;;;;;11.42;61.29;99479.69;5074219;28;40503;-77
2022/06/14 03:38:49;;;;;;;2.40;2.00;;;;;;;11.40;61.55;99478.91;5092001;28;43715;-77
2022/06/14 03:41:21;;;;;;;2.20;2.00;;;;;;;11.45;61.32;99477.72;5077202;28;41959;-78
2022/06/14 03:43:52;;;;;;;2.67;2.37;;;;;;;11.44;61.25;99473.38;5093975;28;41182;-76
2022/06/14 03:46:30;;;;;;;2.43;2.10;;;;;;;11.50;61.26;99480.09;5094617;28;41512;-78
2022/06/14 03:49:02;;;;;;;2.27;1.87;;;;;;;11.52;61.41;99484.38;5093631;28;43664;-77
2022/06/14 03:51:42;;;;;;;2.87;2.13;;;;;;;11.56;62.50;99474.47;5092450;28;42204;-74
2022/06/14 03:54:21;;;;;;;2.93;2.17;;;;;;;11.59;62.81;99478.75;5093970;28;39184;-75
2022/06/14 03:57:03;;;;;;;2.47;2.00;;;;;;;11.62;62.31;99483.91;5090967;28;41841;-74
2022/06/14 03:59:50;;;;;;;2.77;2.30;;;;;;;11.67;62.36;99487.97;5094492;28;42401;-78
2022/06/14 04:05:26;;;;;;;2.90;2.20;;;;;;;11.68;62.44;99473.78;5076361;28;38895;-77
2022/06/14 04:08:00;;;;;;;2.57;2.23;;;;;;;11.79;62.69;99489.09;5093850;28;41742;-77
2022/06/14 04:10:38;;;;;;;2.30;2.10;;;;;;;11.85;62.21;99483.47;5094005;28;41714;-75
2022/06/14 04:13:15;;;;;;;2.30;2.10;;;;;;;11.95;62.09;99486.44;5090974;28;43292;-79
2022/06/14 04:15:50;;;;;;;2.20;2.00;;;;;;;12.03;61.98;99482.38;5077382;28;41382;-75
2022/06/14 04:18:39;;;;;;;3.20;2.30;;;;;;;12.08;61.96;99482.13;5076154;28;40760;-76
2022/06/14 04:21:17;;;;;;;2.03;1.87;;;;;;;12.19;61.42;99496.47;5093701;28;43733;-78
2022/06/14 04:23:54;;;;;;;2.73;2.00;;;;;;;12.27;61.43;99488.03;5076614;28;40889;-75
2022/06/14 04:26:32;;;;;;;2.60;1.90;;;;;;;12.37;61.17;99498.97;5077047;28;38672;-77
2022/06/14 04:29:05;;;;;;;2.83;2.13;;;;;;;12.42;61.99;99492.44;5092323;28;42696;-75
2022/06/14 04:31:39;;;;;;;3.00;2.27;;;;;;;12.53;62.06;99494.47;5090453;28;43246;-79
2022/06/14 04:34:13;;;;;;;3.67;2.40;;;;;;;12.48;62.42;99470.84;5092342;28;42201;-75
2022/06/14 04:36:47;;;;;;;3.10;2.87;;;;;;;12.58;62.11;99482.63;5091812;28;39983;-75
2022/06/14 04:39:20;;;;;;;3.57;2.50;;;;;;;12.72;62.03;99488.91;5093446;28;41861;-78
2022/06/14 04:41:55;;;;;;;6.10;3.03;;;;;;;12.79;61.68;99491.06;5076666;28;42331;-74
2022/06/14 04:44:28;;;;;;;2.37;2.13;;;;;;;12.86;61.54;99481.75;5093830;28;42354;-78
2022/06/14 04:47:02;;;;;;;3.77;2.40;;;;;;;12.96;61.46;99492.69;5091233;28;41100;-75
2022/06/14 04:49:36;;;;;;;2.50;2.30;;;;;;;13.04;61.21;99485.09;5075872;28;40296;-75
2022/06/14 04:52:10;;;;;;;2.40;2.20;;;;;;;13.15;60.97;99484.44;5089291;28;42698;-77
2022/06/14 04:54:42;;;;;;;2.70;2.33;;;;;;;13.25;60.92;99488.22;5092763;28;42909;-77
2022/06/14 04:57:16;;;;;;;2.40;2.20;;;;;;;13.39;61.05;99487.34;5076607;28;38661;-78
2022/06/14 04:59:48;;;;;;;2.43;1.87;;;;;;;13.52;60.98;99474.97;5093091;28;41887;-78
2022/06/14 05:02:23;;;;;;;2.77;2.50;;;;;;;13.66;61.14;99488.25;5089833;28;42489;-76
2022/06/14 05:04:54;;;;;;;3.87;2.43;;;;;;;13.65;60.81;99466.09;5092560;28;41957;-75
2022/06/14 05:07:28;;;;;;;2.93;2.63;;;;;;;13.89;60.92;99484.91;5091190;28;40796;-77
2022/06/14 05:10:00;;;;;;;2.93;2.67;;;;;;;14.00;60.80;99482.41;5092925;28;42747;-74
2022/06/14 05:12:34;;;;;;;2.37;2.10;;;;;;;14.05;60.83;99473.25;5089769;28;42791;-77
2022/06/14 05:15:06;;;;;;;4.03;2.77;;;;;;;14.26;60.41;99491.31;5089948;28;42393;-76
2022/06/14 05:17:42;;;;;;;3.17;2.87;;;;;;;14.38;60.55;99487.81;5076088;28;39877;-79
2022/06/14 05:20:17;;;;;;;3.40;3.10;;;;;;;14.51;60.43;99487.88;5093063;28;40632;-76
2022/06/14 05:22:51;;;;;;;4.67;2.93;;;;;;;14.63;59.95;99492.34;5090817;28;42559;-77
2022/06/14 05:25:33;;;;;;;3.30;3.00;;;;;;;14.78;60.09;99489.59;5089490;28;43218;-79
2022/06/14 05:28:06;;;;;;;3.23;2.90;;;;;;;14.89;59.99;99492.34;5075748;28;38554;-77
2022/06/14 05:30:48;;;;;;;4.37;2.90;;;;;;;15.04;59.61;99497.47;5092401;28;41152;-80
2022/06/14 05:33:28;;;;;;;3.00;2.70;;;;;;;15.18;59.47;99503.66;5075749;28;41602;-76
2022/06/14 05:36:00;;;;;;;5.17;2.47;;;;;;;15.32;58.90;99506.19;5075653;28;42366;-77
2022/06/14 05:38:37;;;;;;;2.60;2.40;;;;;;;15.45;58.45;99505.16;5092788;28;38837;-79
2022/06/14 05:41:09;;;;;;;3.53;3.20;;;;;;;15.33;58.36;99475.88;5075594;28;40441;-74
2022/06/14 05:43:44;;;;;;;3.27;2.90;;;;;;;15.70;58.31;99511.47;5075161;28;41359;-76
2022/06/14 05:46:18;;;;;;;3.07;2.50;;;;;;;15.81;57.88;99508.84;5090581;28;42203;-78
2022/06/14 05:48:50;;;;;;;3.17;2.90;;;;;;;15.98;58.15;99507.59;5091425;28;41190;-78
2022/06/14 05:51:23;;;;;;;3.00;2.30;;;;;;;16.19;57.50;99513.19;5089227;28;41736;-74
2022/06/14 05:53:58;;;;;;;3.93;2.77;;;;;;;16.60;56.86;99513.53;5090843;28;43704;-80
2022/06/14 05:56:32;;;;;;;2.70;2.50;;;;;;;16.84;56.06;99522.38;5092320;28;41298;-79
2022/06/14 05:59:05;;;;;;;2.90;2.70;;;;;;;16.97;55.79;99526.78;5090743;28;41271;-75
2022/06/14 06:01:38;;;;;;;4.20;2.80;;;;;;;16.96;55.59;99515.22;5075140;28;40873;-78
2022/06/14 06:04:12;;;;;;;4.03;3.07;;;;;;;17.09;55.59;99517.78;5091766;28;41834;-79
2022/06/14 06:06:45;;;;;;;3.47;2.63;;;;;;;17.11;55.99;99513.16;5090109;28;43035;-80
2022/06/14 06:09:19;;;;;;;3.83;2.73;;;;;;;17.20;56.06;99515.09;5092094;28;39901;-77
2022/06/14 06:11:52;;;;;;;3.37;2.83;;;;;;;17.27;56.18;99518.16;5088981;28;41711;-79
2022/06/14 06:14:26;;;;;;;3.73;2.67;;;;;;;17.35;56.17;99516.56;5092314;28;42654;-77
2022/06/14 06:17:00;;;;;;;4.30;2.77;;;;;;;17.49;55.94;99519.00;5088702;28;42460;-76
2022/06/14 06:19:35;;;;;;;3.00;2.73;;;;;;;17.63;55.29;99515.25;5074830;28;40277;-75
2022/06/14 06:22:09;;;;;;;3.07;2.70;;;;;;;17.75;55.87;99502.66;5091619;28;40730;-77
2022/06/14 06:24:42;;;;;;;4.33;2.53;;;;;;;17.91;55.45;99511.16;5091270;28;42774;-76
2022/06/14 06:27:12;;;;;;;5.03;2.80;;;;;;;18.08;54.99;99515.97;5091570;28;42073;-75
2022/06/14 06:29:47;;;;;;;3.23;2.40;;;;;;;18.22;54.34;99523.72;5074352;28;40670;-76
2022/06/14 06:32:16;;;;;;;3.77;2.83;;;;;;;18.35;53.71;99528.06;5088433;28;41879;-79
2022/06/14 06:34:46;;;;;;;2.93;2.60;;;;;;;18.49;53.27;99525.91;5074518;28;42112;-78
2022/06/14 06:37:19;;;;;;;3.23;2.17;;;;;;;18.63;52.79;99527.47;5074673;28;42299;-77
2022/06/14 06:39:51;;;;;;;3.27;1.97;;;;;;;18.80;52.09;99513.44;5074560;28;39671;-79
2022/06/14 06:42:26;;;;;;;3.90;2.40;;;;;;;19.10;51.87;99525.22;5091789;28;40919;-75
2022/06/14 06:44:56;;;;;;;2.17;2.00;;;;;;;19.39;50.92;99536.94;5074196;28;41849;-77
2022/06/14 06:47:29;;;;;;;2.93;1.90;;;;;;;19.64;50.58;99541.03;5091256;28;42121;-78
2022/06/14 06:50:18;;;;;;;4.03;2.23;;;;;;;19.85;50.09;99543.63;5074084;28;39822;-81
2022/06/14 06:53:06;;;;;;;2.40;2.13;;;;;;;20.04;48.23;99554.41;5091295;28;42124;-78
2022/06/14 06:55:43;;;;;;;4.53;2.23;;;;;;;20.12;47.04;99551.03;5091073;28;44455;-79
2022/06/14 06:58:16;;;;;;;2.20;1.80;;;;;;;20.13;47.12;99545.53;5088606;28;42405;-74
2022/06/14 07:00:48;;;;;;;2.87;2.33;;;;;;;20.34;47.01;99548.94;5089444;28;40199;-75
2022/06/14 07:03:25;;;;;;;3.17;2.10;;;;;;;20.67;46.77;99561.13;5090807;28;40778;-79
2022/06/14 07:05:58;;;;;;;4.07;2.10;;;;;;;21.32;43.43;99567.56;5088326;28;42441;-79
2022/06/14 07:08:39;;;;;;;2.77;1.93;;;;;;;21.69;43.90;99562.19;5074129;28;41158;-78
2022/06/14 07:11:11;;;;;;;3.30;1.77;;;;;;;21.95;43.70;99556.09;5091075;28;40385;-77
2022/06/14 07:13:50;;;;;;;3.27;1.93;;;;;;;22.00;44.24;99559.22;5089568;28;41598;-75
2022/06/14 07:16:22;;;;;;;2.97;2.00;;;;;;;21.95;44.02;99553.38;5088325;28;43715;-78
2022/06/14 07:18:56;;;;;;;2.10;1.73;;;;;;;21.89;42.71;99562.91;5089528;28;42312;-79
2022/06/14 07:21:30;;;;;;;3.13;1.90;;;;;;;21.71;42.60;99554.78;5074058;28;38844;-78
2022/06/14 07:24:03;;;;;;;1.83;1.67;;;;;;;21.90;44.19;99553.81;5073453;28;40835;-79
2022/06/14 07:26:35;;;;;;;2.73;1.60;;;;;;;22.15;44.28;99553.13;5088123;28;42854;-76
2022/06/14 07:29:06;;;;;;;1.60;1.50;;;;;;;22.68;43.25;99538.78;5073574;28;41208;-81
2022/06/14 07:31:40;;;;;;;2.03;1.83;;;;;;;23.79;41.59;99554.22;5073753;28;39110;-76
2022/06/14 07:34:10;;;;;;;4.50;1.90;;;;;;;25.22;37.39;99595.44;5090435;28;42973;-82
2022/06/14 07:36:51;;;;;;;3.10;1.77;;;;;;;26.31;36.61;99589.38;5090614;28;41712;-78
2022/06/14 07:39:24;;;;;;;1.60;1.50;;;;;;;27.13;35.69;99587.75;5089414;28;43533;-76
2022/06/14 07:42:01;;;;;;;2.87;1.67;;;;;;;28.12;34.19;99598.22;5088571;28;41864;-80
2022/06/14 07:44:33;;;;;;;2.63;1.87;;;;;;;29.33;31.70;99605.59;5090608;28;41556;-79
2022/06/14 07:47:05;;;;;;;1.83;1.33;;;;;;;30.31;29.77;99616.31;5088440;28;43499;-76
2022/06/14 07:49:41;;;;;;;1.50;1.40;;;;;;;30.55;29.79;99611.38;5090767;28;42488;-77
2022/06/14 07:52:16;;;;;;;4.07;1.70;;;;;;;30.07;28.63;99580.47;5073606;28;40072;-76
2022/06/14 07:54:48;;;;;;;2.63;1.80;;;;;;;30.20;28.35;99619.63;5073208;28;40419;-78
2022/06/14 07:57:23;;;;;;;2.10;1.50;;;;;;;30.02;29.01;99615.78;5087224;28;42991;-73
2022/06/14 07:59:54;;;;;;;2.50;1.40;;;;;;;29.87;28.20;99613.97;5090068;28;43423;-77
2022/06/14 08:02:31;;;;;;;2.60;1.33;;;;;;;30.70;26.91;99625.72;5091446;28;40708;-78
2022/06/14 08:05:04;;;;;;;1.63;1.53;;;;;;;31.73;26.57;99605.16;5073092;28;40946;-76
2022/06/14 08:07:34;;;;;;;2.80;1.30;;;;;;;33.26;25.84;99611.63;5090544;28;41770;-78
2022/06/14 08:10:07;;;;;;;1.67;1.50;;;;;;;34.87;23.65;99634.09;5090194;28;42326;-78
2022/06/14 08:12:40;;;;;;;2.77;1.60;;;;;;;35.91;23.16;99627.94;5087309;28;39995;-74
2022/06/14 08:15:11;;;;;;;1.88;1.75;;;;;;;37.23;21.81;99638.06;5073028;28;42342;-79
2022/06/14 08:17:45;;;;;;;2.20;1.30;;;;;;;38.37;20.28;99641.19;5087741;28;42925;-77
2022/06/14 08:20:21;;;;;;;1.65;1.50;;;;;;;39.19;19.28;99643.78;5073111;28;41244;-79
2022/06/14 08:22:55;;;;;;;1.48;1.20;;;;;;;40.00;18.82;99644.44;5088194;28;40922;-76
2022/06/14 08:25:25;;;;;;;1.85;1.52;;;;;;;40.55;17.82;99645.81;5070095;28;41960;-80
2022/06/14 08:27:59;;;;;;;3.00;2.00;;;;;;;40.42;17.16;99658.28;5092887;28;41555;-79
2022/06/14 08:30:32;;;;;;;2.67;1.80;;;;;;;40.17;17.32;99645.09;5092895;28;43444;-79
2022/06/14 08:33:07;;;;;;;3.38;1.80;;;;;;;39.54;17.39;99653.53;5092910;28;40988;-77
2022/06/14 08:35:40;;;;;;;2.03;1.60;;;;;;;38.74;18.10;99647.75;5076499;28;40712;-77
2022/06/14 08:38:15;;;;;;;1.65;1.55;;;;;;;38.68;18.12;99634.94;5090735;28;42661;-78
2022/06/14 08:41:05;;;;;;;1.55;1.38;;;;;;;38.89;18.13;99641.53;5090370;28;42240;-78
2022/06/14 08:43:38;;;;;;;2.58;1.58;;;;;;;39.45;18.06;99637.38;5092627;28;40893;-78
2022/06/14 08:46:20;;;;;;;4.18;1.33;;;;;;;40.16;16.94;99640.63;5076310;28;41896;-77
2022/06/14 08:49:09;;;;;;;2.03;1.30;;;;;;;40.86;16.40;99630.91;5092795;28;41842;-82
2022/06/14 08:52:01;;;;;;;2.30;1.55;;;;;;;41.11;16.21;99638.44;5075970;28;44833;-82
2022/06/14 08:54:53;;;;;;;1.73;1.38;;;;;;;40.33;16.20;99637.66;5092537;28;40628;-76
2022/06/14 08:57:39;;;;;;;1.52;1.42;;;;;;;39.89;16.28;99637.16;5090704;28;41892;-78
2022/06/14 09:00:15;;;;;;;1.67;1.40;;;;;;;40.05;15.61;99632.53;5092840;28;43948;-78
2022/06/14 09:03:26;;;;;;;2.50;1.50;;;;;;;40.66;15.71;99635.56;5075896;28;41371;-77
2022/06/14 09:06:27;;;;;;;3.65;1.50;;;;;;;40.87;15.44;99637.31;5064344;28;40157;-80
2022/06/14 09:09:25;;;;;;;4.82;1.52;;;;;;;40.71;15.99;99614.22;5075420;28;40466;-78
2022/06/14 09:12:27;;;;;;;1.88;1.40;;;;;;;40.83;15.33;99631.47;5075260;28;41800;-78
2022/06/14 09:15:22;;;;;;;1.75;1.30;;;;;;;40.53;15.34;99625.81;5092450;28;42644;-76
2022/06/14 09:18:31;;;;;;;1.60;1.50;;;;;;;41.21;15.67;99626.53;5092341;28;41362;-82
2022/06/14 09:21:19;;;;;;;1.65;1.23;;;;;;;42.44;14.91;99623.25;5090840;28;41653;-76
2022/06/14 09:23:59;;;;;;;1.88;1.38;;;;;;;43.24;14.55;99620.25;5075809;28;42765;-78
2022/06/14 09:26:46;;;;;;;1.98;1.40;;;;;;;43.26;13.72;99623.59;5090558;28;42178;-75
2022/06/14 09:29:47;;;;;;;3.85;1.92;;;;;;;42.37;13.61;99628.31;5075474;28;40886;-82
2022/06/14 09:36:11;;;;;;;3.30;1.45;;;;;;;39.89;15.72;99595.53;5092507;28;41684;-78
2022/06/14 09:39:08;;;;;;;2.05;1.50;;;;;;;39.78;15.00;99605.72;5074915;28;42634;-75
2022/06/14 09:42:05;;;;;;;3.08;1.33;;;;;;;41.12;14.49;99608.72;5075578;28;40104;-78
2022/06/14 09:45:04;;;;;;;2.03;1.60;;;;;;;42.49;13.76;99614.03;5080497;28;41704;-79
2022/06/14 09:48:00;;;;;;;2.75;1.27;;;;;;;43.30;13.65;99603.19;5075753;28;41771;-79
2022/06/14 09:50:59;;;;;;;1.77;1.40;;;;;;;43.30;13.32;99602.34;5089316;28;43177;-78
2022/06/14 09:53:59;;;;;;;2.60;1.83;;;;;;;43.19;13.67;99601.59;5091498;28;39997;-78
2022/06/14 09:56:52;;;;;;;4.47;1.63;;;;;;;43.56;13.06;99600.97;5074982;28;40188;-80
2022/06/14 10:00:03;;;;;;;2.15;1.40;;;;;;;43.12;13.07;99594.69;5091818;28;42713;-82
2022/06/14 10:02:50;;;;;;;4.32;1.50;;;;;;;42.35;13.60;99593.47;5063520;28;43206;-79
2022/06/14 10:05:36;;;;;;;1.65;1.50;;;;;;;41.75;14.22;99585.06;5092093;28;39974;-77
2022/06/14 10:08:30;;;;;;;1.20;1.10;;;;;;;41.12;15.14;99567.84;5096926;28;41470;-75
2022/06/14 10:11:15;;;;;;;2.85;1.90;;;;;;;40.85;15.39;99559.78;5098562;28;44019;-77
2022/06/14 10:13:57;;;;;;;2.43;1.40;;;;;;;40.28;15.58;99561.84;5097108;28;42453;-76
2022/06/14 10:16:48;;;;;;;2.87;1.83;;;;;;;39.33;15.75;99556.31;5096304;28;41190;-75
2022/06/14 10:19:44;;;;;;;2.93;1.57;;;;;;;38.95;16.11;99545.47;5079781;28;42532;-76
2022/06/14 10:22:23;;;;;;;1.50;1.40;;;;;;;38.25;16.94;99543.63;5092663;28;43791;-78
2022/06/14 10:25:00;;;;;;;2.17;1.30;;;;;;;37.27;17.12;99548.91;5093616;28;43055;-79
2022/06/14 10:30:38;;;;;;;1.77;1.30;;;;;;;35.80;19.15;99515.75;5091718;28;41544;-78
2022/06/14 10:33:28;;;;;;;1.83;1.60;;;;;;;35.50;19.47;99515.06;5074848;28;41934;-76
2022/06/14 10:36:14;;;;;;;2.60;1.60;;;;;;;35.86;19.12;99520.28;5074671;28;41280;-79
2022/06/14 10:39:16;;;;;;;2.00;1.47;;;;;;;36.39;19.45;99508.13;5090111;28;40028;-80
2022/06/14 10:41:54;;;;;;;3.03;1.50;;;;;;;36.57;17.72;99532.75;5088606;28;41726;-79
2022/06/14 10:44:33;;;;;;;2.40;1.60;;;;;;;35.91;17.49;99528.69;5074182;28;42328;-78
2022/06/14 10:47:10;;;;;;;1.93;1.40;;;;;;;34.99;19.35;99507.53;5089454;28;42313;-81
2022/06/14 10:53:15;;;;;;;3.53;1.53;;;;;;;33.78;21.73;99492.94;5109508;28;20560;-78
2022/06/14 10:56:01;;;;;;;2.40;1.40;;;;;;;33.74;21.91;99483.47;5106690;28;39887;-81
2022/06/14 10:58:56;;;;;;;3.27;1.57;;;;;;;33.33;23.74;99433.91;5108007;28;42498;-76
2022/06/14 11:01:38;;;;;;;1.93;1.37;;;;;;;33.27;21.61;99475.97;5107995;28;43887;-79
2022/06/14 11:04:17;;;;;;;1.57;1.20;;;;;;;33.12;22.52;99468.94;5106481;28;42035;-80
2022/06/14 11:07:17;;;;;;;3.17;1.87;;;;;;;33.03;22.83;99486.75;5125075;27;40155;-76
2022/06/14 11:10:08;;;;;;;2.10;1.40;;;;;;;32.74;24.48;99460.84;5105061;28;42664;-77
2022/06/14 11:12:53;;;;;;;4.00;1.67;;;;;;;32.65;21.38;99467.63;5108816;28;43557;-80
2022/06/14 11:15:31;;;;;;;1.57;1.40;;;;;;;32.58;22.96;99460.53;5139358;27;43385;-81
2022/06/14 11:18:20;;;;;;;1.83;1.60;;;;;;;32.66;22.38;99458.34;5105085;28;39964;-78
2022/06/14 11:20:58;;;;;;;1.30;1.17;;;;;;;32.78;22.86;99453.84;5106347;28;41686;-78
2022/06/14 11:23:34;;;;;;;1.20;1.10;;;;;;;32.81;21.30;99463.53;5125017;27;44403;-79
2022/06/14 11:26:09;;;;;;;3.27;1.50;;;;;;;32.70;20.67;99469.72;5107393;28;40951;-80
2022/06/14 11:28:47;;;;;;;1.97;1.40;;;;;;;32.41;21.13;99461.06;5139378;27;39916;-80
2022/06/14 11:31:22;;;;;;;1.87;1.37;;;;;;;32.62;21.82;99467.25;5124406;27;42709;-78
2022/06/14 11:34:06;;;;;;;3.73;1.27;;;;;;;32.65;22.71;99417.41;5125045;27;43000;-80
2022/06/14 11:36:54;;;;;;;2.50;1.70;;;;;;;32.98;22.56;99439.94;5107102;28;42175;-78
2022/06/14 11:39:33;;;;;;;2.03;1.30;;;;;;;33.17;23.66;99429.81;5109166;28;40280;-80
2022/06/14 11:42:07;;;;;;;2.63;1.40;;;;;;;33.51;22.57;99436.63;5107743;28;42751;-79
2022/06/14 11:45:01;;;;;;;1.40;1.30;;;;;;;33.73;21.34;99442.50;5139004;27;42756;-81
2022/06/14 11:47:38;;;;;;;2.17;1.50;;;;;;;34.43;22.45;99427.13;5108480;28;43069;-79
2022/06/14 11:50:14;;;;;;;2.00;1.30;;;;;;;35.29;19.44;99447.66;5107402;28;39248;-82
2022/06/14 11:52:59;;;;;;;2.10;1.53;;;;;;;35.80;18.13;99468.91;5108037;28;41421;-80
2022/06/14 11:55:32;;;;;;;2.00;1.50;;;;;;;36.15;19.45;99452.19;5107367;28;41824;-78
2022/06/14 11:58:12;;;;;;;2.23;1.50;;;;;;;36.35;18.31;99462.81;5090242;28;42571;-78
2022/06/14 12:01:08;;;;;;;1.90;1.40;;;;;;;36.75;19.56;99439.75;5104471;28;40650;-78
2022/06/14 12:03:59;;;;;;;5.67;1.60;;;;;;;37.72;19.08;99437.31;5097772;28;40733;-83
2022/06/14 12:06:45;;;;;;;2.45;1.48;;;;;;;39.20;17.21;99450.63;5091579;28;43100;-80
2022/06/14 12:09:55;;;;;;;1.90;1.52;;;;;;;40.26;16.73;99453.84;5091530;28;42180;-80
2022/06/14 12:12:31;;;;;;;2.50;1.67;;;;;;;41.14;14.95;99465.59;4995781;28;40118;-78
2022/06/14 12:15:03;;;;;;;2.42;1.35;;;;;;;41.87;14.46;99453.94;4996110;28;41988;-78
2022/06/14 12:17:37;;;;;;;1.95;1.50;;;;;;;42.60;13.31;99471.59;5045711;28;43151;-84
2022/06/14 12:20:09;;;;;;;2.10;1.10;;;;;;;43.12;12.45;99466.44;5110504;28;41910;-81
2022/06/14 12:22:46;;;;;;;1.35;1.25;;;;;;;43.41;13.49;99453.28;5093099;28;38792;-82
2022/06/14 12:28:14;;;;;;;2.08;1.40;;;;;;;44.28;11.77;99470.59;5076947;28;41707;-77
2022/06/14 12:30:45;;;;;;;2.03;1.40;;;;;;;44.79;12.32;99460.59;5110020;28;42765;-77
2022/06/14 12:33:29;;;;;;;1.83;1.27;;;;;;;45.31;12.06;99464.97;5092849;28;40952;-78
2022/06/14 12:36:03;;;;;;;2.33;1.27;;;;;;;45.68;11.41;99466.75;5109777;28;42523;-79
2022/06/14 12:38:37;;;;;;;1.75;1.20;;;;;;;45.82;11.75;99464.78;5091364;28;42884;-78
2022/06/14 12:41:12;;;;;;;1.45;1.30;;;;;;;45.80;10.39;99465.09;5091843;28;43270;-83
2022/06/14 12:43:52;;;;;;;1.48;1.38;;;;;;;45.94;11.12;99450.25;5124012;27;40871;-78
2022/06/14 12:46:26;;;;;;;1.30;1.20;;;;;;;46.47;11.91;99442.84;5125345;27;41798;-82